createdAt,value
2017-08-17T00:00:34.375Z,82.10
2017-08-17T00:03:01.868Z,82.20
2017-08-17T00:05:29.352Z,82.20
2017-08-17T00:07:56.876Z,82.30
2017-08-17T00:10:24.367Z,82.40
2017-08-17T00:12:51.894Z,82.30
2017-08-17T00:15:19.402Z,82.40
2017-08-17T00:17:47.655Z,82.40
2017-08-17T00:20:15.176Z,82.40
2017-08-17T00:22:42.696Z,82.40
2017-08-17T00:25:10.967Z,82.40
2017-08-17T00:27:39.223Z,82.30
2017-08-17T00:30:06.748Z,82.30
2017-08-17T00:32:34.241Z,82.40
2017-08-17T00:35:01.764Z,82.30
2017-08-17T00:37:29.266Z,82.30
2017-08-17T00:39:57.548Z,82.30
2017-08-17T00:42:25.037Z,82.20
2017-08-17T00:44:52.575Z,82.30
2017-08-17T00:47:20.064Z,82.40
2017-08-17T00:49:47.555Z,82.40
2017-08-17T00:52:15.841Z,82.70
2017-08-17T00:54:44.095Z,82.50
2017-08-17T00:57:11.632Z,82.40
2017-08-17T00:59:39.121Z,82.50
2017-08-17T01:02:07.372Z,82.60
2017-08-17T01:04:34.907Z,82.60
2017-08-17T01:07:02.401Z,82.60
2017-08-17T01:09:29.888Z,82.70
2017-08-17T01:11:57.424Z,82.80
2017-08-17T01:14:25.679Z,82.80
2017-08-17T01:16:53.165Z,82.80
2017-08-17T01:19:21.452Z,82.90
2017-08-17T01:21:48.979Z,82.90
2017-08-17T01:24:16.462Z,82.90
2017-08-17T01:26:44.001Z,83.00
2017-08-17T01:29:12.269Z,83.10
2017-08-17T01:31:40.563Z,83.10
2017-08-17T01:34:08.048Z,83.00
2017-08-17T01:36:35.539Z,83.10
2017-08-17T01:39:03.074Z,83.20
2017-08-17T01:41:30.561Z,83.10
2017-08-17T01:43:58.083Z,83.10
2017-08-17T01:46:25.571Z,83.00
2017-08-17T01:48:53.082Z,83.00
2017-08-17T01:51:20.640Z,83.00
2017-08-17T01:53:48.135Z,83.00
2017-08-17T01:56:15.620Z,83.00
2017-08-17T01:58:43.903Z,82.90
2017-08-17T02:01:12.163Z,83.00
2017-08-17T02:03:40.439Z,83.00
2017-08-17T02:06:08.453Z,82.70
2017-08-17T02:08:35.971Z,82.80
2017-08-17T02:11:03.459Z,82.60
2017-08-17T02:13:30.976Z,82.50
2017-08-17T02:15:59.264Z,83.00
2017-08-17T02:18:27.520Z,82.50
2017-08-17T02:20:55.021Z,82.50
2017-08-17T02:23:22.556Z,82.50
2017-08-17T02:25:50.072Z,82.50
2017-08-17T02:28:17.554Z,82.50
2017-08-17T02:30:45.827Z,83.00
2017-08-17T02:33:13.308Z,82.40
2017-08-17T02:35:40.843Z,82.50
2017-08-17T02:38:09.096Z,82.50
2017-08-17T02:40:36.588Z,82.40
2017-08-17T02:43:04.854Z,82.20
2017-08-17T02:45:33.109Z,82.20
2017-08-17T02:48:00.628Z,82.20
2017-08-17T02:50:28.120Z,82.20
2017-08-17T02:52:55.643Z,82.20
2017-08-17T02:55:23.168Z,82.20
2017-08-17T02:57:50.649Z,82.20
2017-08-17T03:00:18.131Z,82.20
2017-08-17T03:02:45.631Z,82.10
2017-08-17T03:05:13.880Z,82.30
2017-08-17T03:10:15.444Z,82.30
2017-08-17T03:12:42.959Z,82.40
2017-08-17T03:15:10.449Z,82.50
2017-08-17T03:17:37.950Z,82.50
2017-08-17T03:20:05.455Z,82.40
2017-08-17T03:22:32.942Z,82.30
2017-08-17T03:25:01.239Z,82.40
2017-08-17T03:27:28.727Z,82.20
2017-08-17T03:29:56.215Z,82.10
2017-08-17T03:32:23.717Z,82.10
2017-08-17T03:34:51.211Z,81.90
2017-08-17T03:37:18.729Z,81.90
2017-08-17T03:39:46.223Z,82.00
2017-08-17T03:42:13.739Z,81.90
2017-08-17T03:44:41.247Z,81.80
2017-08-17T03:47:08.739Z,81.80
2017-08-17T03:49:37.019Z,81.80
2017-08-17T03:52:05.275Z,81.80
2017-08-17T03:54:33.544Z,81.70
2017-08-17T03:57:01.044Z,81.70
2017-08-17T03:59:28.544Z,81.70
2017-08-17T04:01:56.032Z,81.60
2017-08-17T04:04:24.295Z,81.60
2017-08-17T04:06:52.547Z,81.60
2017-08-17T04:09:20.080Z,81.40
2017-08-17T04:11:47.567Z,81.40
2017-08-17T04:14:15.054Z,81.50
2017-08-17T04:16:43.330Z,81.40
2017-08-17T04:19:10.820Z,81.30
2017-08-17T04:21:38.313Z,81.40
2017-08-17T04:24:05.815Z,81.40
2017-08-17T04:26:33.307Z,81.40
2017-08-17T04:29:00.817Z,81.40
2017-08-17T04:31:28.308Z,81.40
2017-08-17T04:33:55.811Z,81.40
2017-08-17T04:36:24.067Z,81.40
2017-08-17T04:38:51.547Z,81.30
2017-08-17T04:41:19.817Z,81.30
2017-08-17T04:43:48.075Z,81.40
2017-08-17T04:46:15.586Z,81.30
2017-08-17T04:48:43.074Z,81.50
2017-08-17T04:51:10.570Z,81.60
2017-08-17T04:53:38.849Z,81.50
2017-08-17T04:56:24.026Z,81.50
2017-08-17T04:58:51.536Z,81.50
2017-08-17T05:01:19.023Z,81.60
2017-08-17T05:03:46.555Z,81.60
2017-08-17T05:06:14.612Z,81.60
2017-08-17T05:08:42.105Z,81.70
2017-08-17T05:11:10.379Z,81.80
2017-08-17T05:13:38.636Z,82.00
2017-08-17T05:16:06.127Z,81.90
2017-08-17T05:18:33.641Z,82.00
2017-08-17T05:21:01.128Z,82.10
2017-08-17T05:23:29.407Z,82.30
2017-08-17T05:25:57.667Z,82.40
2017-08-17T05:28:25.931Z,82.50
2017-08-17T05:30:53.439Z,82.50
2017-08-17T05:33:20.932Z,82.50
2017-08-17T05:35:48.436Z,82.70
2017-08-17T05:38:15.929Z,82.80
2017-08-17T05:40:43.415Z,82.80
2017-08-17T05:43:10.922Z,82.90
2017-08-17T05:45:38.416Z,83.00
2017-08-17T05:48:05.924Z,83.00
2017-08-17T05:50:33.420Z,83.10
2017-08-17T05:53:00.928Z,83.10
2017-08-17T05:55:28.420Z,83.20
2017-08-17T05:57:55.919Z,83.30
2017-08-17T06:00:24.203Z,83.40
2017-08-17T06:02:52.455Z,83.40
2017-08-17T06:05:19.962Z,83.40
2017-08-17T06:07:47.453Z,83.40
2017-08-17T06:10:14.956Z,83.60
2017-08-17T06:12:42.467Z,83.50
2017-08-17T06:15:09.972Z,83.50
2017-08-17T06:17:37.482Z,83.60
2017-08-17T06:20:04.970Z,83.50
2017-08-17T06:22:33.240Z,83.50
2017-08-17T06:25:01.499Z,83.50
2017-08-17T06:27:29.015Z,83.40
2017-08-17T06:29:56.505Z,83.40
2017-08-17T06:32:23.999Z,83.50
2017-08-17T06:34:52.268Z,83.30
2017-08-17T06:37:20.530Z,83.20
2017-08-17T06:39:48.030Z,83.20
2017-08-17T06:42:15.527Z,83.10
2017-08-17T06:44:43.017Z,83.00
2017-08-17T06:47:11.285Z,83.00
2017-08-17T06:49:38.775Z,82.90
2017-08-17T06:52:06.289Z,83.00
2017-08-17T06:54:33.768Z,83.00
2017-08-17T06:57:01.255Z,82.90
2017-08-17T06:59:28.788Z,82.90
2017-08-17T07:01:56.266Z,82.80
2017-08-17T07:04:23.756Z,83.00
2017-08-17T07:06:51.267Z,82.90
2017-08-17T07:09:18.764Z,82.80
2017-08-17T07:11:46.272Z,82.70
2017-08-17T07:14:13.768Z,82.60
2017-08-17T07:16:41.278Z,82.80
2017-08-17T07:19:08.768Z,82.70
2017-08-17T07:21:36.276Z,82.70
2017-08-17T07:24:03.776Z,82.60
2017-08-17T07:26:31.263Z,82.60
2017-08-17T07:28:58.765Z,82.60
2017-08-17T07:31:26.264Z,82.40
2017-08-17T07:33:53.764Z,82.10
2017-08-17T07:36:21.257Z,82.00
2017-08-17T07:38:48.764Z,81.70
2017-08-17T07:41:17.023Z,81.20
2017-08-17T07:43:44.512Z,81.10
2017-08-17T07:46:12.029Z,81.10
2017-08-17T07:48:39.515Z,81.10
2017-08-17T07:51:07.787Z,80.50
2017-08-17T07:53:36.047Z,80.40
2017-08-17T07:56:03.539Z,80.30
2017-08-17T07:58:31.052Z,80.30
2017-08-17T08:00:58.543Z,80.20
2017-08-17T08:03:26.805Z,79.90
2017-08-17T08:05:55.076Z,79.60
2017-08-17T08:08:23.332Z,79.40
2017-08-17T08:10:50.820Z,79.30
2017-08-17T08:13:19.100Z,79.20
2017-08-17T08:15:46.601Z,79.80
2017-08-17T08:18:14.110Z,79.30
2017-08-17T08:20:42.366Z,78.70
2017-08-17T08:23:10.632Z,77.70
2017-08-17T08:25:38.124Z,78.10
2017-08-17T08:28:05.616Z,78.20
2017-08-17T08:30:33.135Z,78.30
2017-08-17T08:33:00.635Z,78.20
2017-08-17T08:35:28.145Z,78.30
2017-08-17T08:37:55.640Z,78.40
2017-08-17T08:40:23.149Z,78.40
2017-08-17T08:42:51.395Z,78.20
2017-08-17T08:45:18.887Z,78.10
2017-08-17T08:47:47.340Z,78.20
2017-08-17T08:50:14.833Z,78.10
2017-08-17T08:52:42.334Z,78.10
2017-08-17T08:55:09.835Z,78.10
2017-08-17T08:57:38.084Z,78.00
2017-08-17T09:00:05.602Z,78.00
2017-08-17T09:02:33.093Z,77.80
2017-08-17T09:05:00.579Z,77.70
2017-08-17T09:07:28.104Z,77.60
2017-08-17T09:09:55.596Z,77.40
2017-08-17T09:12:23.105Z,77.10
2017-08-17T09:14:50.602Z,77.00
2017-08-17T09:17:18.107Z,77.10
2017-08-17T09:19:45.596Z,76.80
2017-08-17T09:22:13.096Z,76.60
2017-08-17T09:24:40.601Z,77.00
2017-08-17T09:27:08.092Z,76.40
2017-08-17T09:29:35.613Z,76.40
2017-08-17T09:32:03.106Z,76.50
2017-08-17T09:34:30.596Z,75.90
2017-08-17T09:36:58.109Z,75.80
2017-08-17T09:39:25.602Z,75.90
2017-08-17T09:41:53.111Z,75.30
2017-08-17T09:44:21.373Z,75.10
2017-08-17T09:46:48.860Z,75.00
2017-08-17T09:49:16.360Z,74.90
2017-08-17T09:51:43.860Z,75.00
2017-08-17T09:54:11.366Z,75.10
2017-08-17T09:56:38.860Z,75.10
2017-08-17T09:59:06.348Z,75.20
2017-08-17T10:01:33.853Z,75.20
2017-08-17T10:04:01.345Z,75.40
2017-08-17T10:06:29.620Z,75.60
2017-08-17T10:08:57.876Z,75.70
2017-08-17T10:11:25.363Z,75.70
2017-08-17T10:13:52.873Z,75.80
2017-08-17T10:16:20.363Z,76.00
2017-08-17T10:18:47.869Z,76.20
2017-08-17T10:21:15.354Z,76.20
2017-08-17T10:23:42.859Z,76.30
2017-08-17T10:26:10.341Z,76.20
2017-08-17T10:28:37.833Z,76.30
2017-08-17T10:31:05.333Z,76.20
2017-08-17T10:33:32.824Z,76.50
2017-08-17T10:36:00.338Z,76.40
2017-08-17T10:38:27.823Z,76.20
2017-08-17T10:40:55.307Z,76.00
2017-08-17T10:43:22.807Z,75.90
2017-08-17T10:45:50.303Z,75.90
2017-08-17T10:48:17.808Z,75.90
2017-08-17T10:50:46.069Z,76.00
2017-08-17T10:53:14.324Z,76.00
2017-08-17T10:55:41.839Z,76.00
2017-08-17T10:58:09.330Z,76.00
2017-08-17T11:00:36.829Z,75.80
2017-08-17T11:03:04.346Z,75.80
2017-08-17T11:05:31.838Z,75.80
2017-08-17T11:07:59.343Z,75.80
2017-08-17T11:10:26.837Z,75.80
2017-08-17T11:12:54.352Z,75.90
2017-08-17T11:15:21.840Z,75.90
2017-08-17T11:17:49.365Z,75.90
2017-08-17T11:20:16.872Z,76.00
2017-08-17T11:22:45.129Z,76.40
2017-08-17T11:25:12.663Z,76.40
2017-08-17T11:27:40.837Z,76.60
2017-08-17T11:30:09.207Z,76.60
2017-08-17T11:32:36.692Z,76.50
2017-08-17T11:35:04.216Z,76.50
2017-08-17T11:37:31.704Z,76.50
2017-08-17T11:39:59.262Z,76.40
2017-08-17T11:42:26.756Z,76.30
2017-08-17T11:44:54.254Z,75.90
2017-08-17T11:47:22.003Z,75.60
2017-08-17T11:49:49.653Z,75.10
2017-08-17T11:52:17.148Z,74.60
2017-08-17T11:54:44.682Z,74.50
2017-08-17T11:57:12.166Z,74.70
2017-08-17T11:59:39.657Z,74.80
2017-08-17T12:02:07.200Z,74.90
2017-08-17T12:04:35.455Z,74.70
2017-08-17T12:07:02.947Z,74.60
2017-08-17T12:09:30.493Z,74.70
2017-08-17T12:11:58.752Z,74.80
2017-08-17T12:14:26.250Z,74.80
2017-08-17T12:16:53.772Z,74.90
2017-08-17T12:19:22.068Z,74.60
2017-08-17T12:21:49.581Z,74.60
2017-08-17T12:24:17.129Z,74.70
2017-08-17T12:26:44.620Z,74.60
2017-08-17T12:29:12.881Z,74.50
2017-08-17T12:31:40.415Z,74.50
2017-08-17T12:34:07.917Z,74.20
2017-08-17T12:36:35.420Z,73.80
2017-08-17T12:39:02.958Z,73.60
2017-08-17T12:41:30.454Z,73.50
2017-08-17T12:43:57.992Z,73.20
2017-08-17T12:46:25.488Z,73.10
2017-08-17T12:48:53.761Z,73.10
2017-08-17T12:51:22.114Z,73.00
2017-08-17T12:53:50.662Z,73.00
2017-08-17T12:56:18.231Z,72.80
2017-08-17T12:58:45.716Z,72.70
2017-08-17T13:01:13.212Z,72.80
2017-08-17T13:03:40.748Z,72.30
2017-08-17T13:06:08.239Z,71.90
2017-08-17T13:08:35.759Z,71.60
2017-08-17T13:11:04.084Z,71.00
2017-08-17T13:13:31.569Z,70.50
2017-08-17T13:15:59.120Z,71.00
2017-08-17T13:18:26.614Z,71.00
2017-08-17T13:20:54.872Z,70.30
2017-08-17T13:23:22.430Z,70.30
2017-08-17T13:25:49.964Z,70.60
2017-08-17T13:28:17.481Z,70.40
2017-08-17T13:30:45.001Z,70.30
2017-08-17T13:33:12.498Z,70.40
2017-08-17T13:35:40.016Z,70.10
2017-08-17T13:38:07.665Z,70.00
2017-08-17T13:40:35.176Z,70.80
2017-08-17T13:43:02.721Z,70.00
2017-08-17T13:45:30.212Z,69.90
2017-08-17T13:47:57.700Z,70.00
2017-08-17T13:50:25.222Z,70.60
2017-08-17T13:52:52.709Z,70.80
2017-08-17T13:55:20.247Z,70.80
2017-08-17T13:57:47.755Z,71.00
2017-08-17T14:00:15.259Z,70.80
2017-08-17T14:02:42.776Z,71.00
2017-08-17T14:05:10.271Z,71.10
2017-08-17T14:07:37.814Z,70.90
2017-08-17T14:10:05.315Z,70.80
2017-08-17T14:12:32.811Z,70.70
2017-08-17T14:15:00.332Z,70.70
2017-08-17T14:17:27.827Z,71.00
2017-08-17T14:19:56.073Z,70.50
2017-08-17T14:22:23.559Z,70.50
2017-08-17T14:24:51.084Z,69.30
2017-08-17T14:27:18.571Z,69.20
2017-08-17T14:29:46.098Z,68.70
2017-08-17T14:32:13.641Z,68.20
2017-08-17T14:34:41.128Z,68.00
2017-08-17T14:37:08.615Z,68.10
2017-08-17T14:39:36.132Z,67.70
2017-08-17T14:42:03.628Z,66.00
2017-08-17T14:44:31.164Z,64.80
2017-08-17T14:46:58.665Z,65.20
2017-08-17T14:49:26.164Z,65.50
2017-08-17T14:51:53.687Z,65.30
2017-08-17T14:54:21.200Z,64.40
2017-08-17T14:56:48.692Z,64.20
2017-08-17T14:59:16.219Z,63.90
2017-08-17T15:01:43.705Z,64.00
2017-08-17T15:04:11.193Z,64.00
2017-08-17T15:06:38.719Z,63.70
2017-08-17T15:09:06.208Z,63.50
2017-08-17T15:11:33.696Z,63.10
2017-08-17T15:14:01.212Z,62.30
2017-08-17T15:16:28.736Z,61.70
2017-08-17T15:18:56.233Z,61.00
2017-08-17T15:21:23.738Z,60.90
2017-08-17T15:23:51.275Z,61.50
2017-08-17T15:26:18.760Z,61.40
2017-08-17T15:28:46.247Z,60.80
2017-08-17T15:31:13.767Z,59.30
2017-08-17T15:33:41.266Z,58.10
2017-08-17T15:36:08.835Z,57.30
2017-08-17T15:38:37.100Z,56.00
2017-08-17T15:41:04.584Z,56.10
2017-08-17T15:43:32.102Z,55.70
2017-08-17T15:45:59.620Z,55.80
2017-08-17T15:48:27.108Z,54.30
2017-08-17T15:50:54.629Z,51.90
2017-08-17T15:53:22.116Z,50.90
2017-08-17T15:55:49.627Z,51.10
2017-08-17T15:58:17.123Z,50.60
2017-08-17T16:00:44.639Z,51.40
2017-08-17T16:03:12.132Z,48.70
2017-08-17T16:05:39.665Z,45.90
2017-08-17T16:08:07.157Z,46.00
2017-08-17T16:10:34.646Z,47.80
2017-08-17T16:13:02.390Z,50.30
2017-08-17T16:15:30.675Z,54.50
2017-08-17T16:17:58.184Z,54.50
2017-08-17T16:20:25.700Z,56.10
2017-08-17T16:22:54.031Z,59.20
2017-08-17T16:25:21.557Z,59.20
2017-08-17T16:27:49.046Z,62.10
2017-08-17T16:30:16.589Z,58.50
2017-08-17T16:32:44.077Z,52.70
2017-08-17T16:35:11.564Z,48.50
2017-08-17T16:37:39.875Z,47.30
2017-08-17T16:40:07.365Z,47.20
2017-08-17T16:42:34.855Z,48.20
2017-08-17T16:45:03.168Z,51.60
2017-08-17T16:47:30.679Z,51.50
2017-08-17T16:49:58.260Z,52.60
2017-08-17T16:52:25.759Z,54.00
2017-08-17T16:54:53.272Z,54.30
2017-08-17T16:57:20.764Z,55.60
2017-08-17T16:59:48.290Z,57.00
2017-08-17T17:02:15.779Z,57.40
2017-08-17T17:04:43.277Z,58.50
2017-08-17T17:07:10.915Z,59.80
2017-08-17T17:09:38.411Z,60.20
2017-08-17T17:12:05.901Z,60.60
2017-08-17T17:14:33.427Z,61.10
2017-08-17T17:17:00.914Z,62.40
2017-08-17T17:19:28.407Z,62.40
2017-08-17T17:21:55.928Z,63.00
2017-08-17T17:24:23.428Z,63.60
2017-08-17T17:26:51.737Z,64.90
2017-08-17T17:29:19.220Z,64.60
2017-08-17T17:31:46.732Z,65.20
2017-08-17T17:34:15.040Z,66.20
2017-08-17T17:36:42.535Z,66.20
2017-08-17T17:39:10.052Z,66.70
2017-08-17T17:41:37.561Z,67.00
2017-08-17T17:44:05.055Z,67.20
2017-08-17T17:46:32.576Z,67.40
2017-08-17T17:49:00.060Z,67.70
2017-08-17T17:51:27.641Z,68.00
2017-08-17T17:53:55.192Z,68.10
2017-08-17T17:56:22.711Z,68.40
2017-08-17T17:58:50.998Z,68.90
2017-08-17T18:01:19.288Z,69.10
2017-08-17T18:03:46.788Z,69.00
2017-08-17T18:06:14.314Z,69.30
2017-08-17T18:08:41.804Z,69.50
2017-08-17T18:11:09.346Z,69.70
2017-08-17T18:13:36.852Z,69.90
2017-08-17T18:16:05.234Z,70.00
2017-08-17T18:18:32.730Z,70.00
2017-08-17T18:21:00.220Z,70.00
2017-08-17T18:23:27.741Z,70.10
2017-08-17T18:25:55.231Z,70.20
2017-08-17T18:28:22.864Z,70.30
2017-08-17T18:30:50.412Z,70.40
2017-08-17T18:33:18.002Z,70.60
2017-08-17T18:35:45.804Z,70.80
2017-08-17T18:38:13.571Z,70.80
2017-08-17T18:40:41.342Z,71.00
2017-08-17T18:43:09.043Z,71.20
2017-08-17T18:45:37.128Z,71.20
2017-08-17T18:48:04.725Z,71.10
2017-08-17T18:50:32.229Z,71.10
2017-08-17T18:52:59.789Z,71.20
2017-08-17T18:55:27.287Z,71.10
2017-08-17T18:57:55.543Z,71.40
2017-08-17T19:00:23.868Z,71.60
2017-08-17T19:02:51.379Z,71.60
2017-08-17T19:05:19.658Z,71.80
2017-08-17T19:07:47.968Z,71.80
2017-08-17T19:10:15.462Z,71.80
2017-08-17T19:12:42.958Z,72.00
2017-08-17T19:15:11.248Z,72.20
2017-08-17T19:17:38.761Z,72.20
2017-08-17T19:20:06.285Z,72.40
2017-08-17T19:22:33.813Z,72.30
2017-08-17T19:25:01.303Z,72.40
2017-08-17T19:27:28.838Z,72.50
2017-08-17T19:29:56.369Z,72.60
2017-08-17T19:32:23.892Z,72.70
2017-08-17T19:34:51.376Z,72.70
2017-08-17T19:37:19.684Z,73.50
2017-08-17T19:39:47.195Z,72.60
2017-08-17T19:42:14.688Z,72.90
2017-08-17T19:44:42.224Z,72.90
2017-08-17T19:47:09.744Z,72.90
2017-08-17T19:49:37.265Z,73.10
2017-08-17T19:52:04.768Z,73.10
2017-08-17T19:54:32.302Z,73.20
2017-08-17T19:56:59.833Z,73.40
2017-08-17T19:59:27.339Z,73.40
2017-08-17T20:01:54.832Z,73.30
2017-08-17T20:04:23.120Z,73.40
2017-08-17T20:06:50.631Z,73.40
2017-08-17T20:09:18.167Z,73.50
2017-08-17T20:11:45.662Z,73.60
2017-08-17T20:14:13.185Z,73.60
2017-08-17T20:16:40.742Z,73.70
2017-08-17T20:19:08.242Z,73.70
2017-08-17T20:21:35.745Z,73.80
2017-08-17T20:24:03.264Z,73.90
2017-08-17T20:26:30.753Z,73.80
2017-08-17T20:28:58.298Z,73.80
2017-08-17T20:31:25.785Z,73.90
2017-08-17T20:33:53.272Z,74.00
2017-08-17T20:36:21.588Z,74.10
2017-08-17T20:38:49.117Z,74.10
2017-08-17T20:41:17.408Z,74.20
2017-08-17T20:43:44.929Z,74.20
2017-08-17T20:46:12.492Z,74.20
2017-08-17T20:48:39.991Z,74.30
2017-08-17T20:51:07.476Z,74.40
2017-08-17T20:53:35.001Z,74.40
2017-08-17T20:56:02.506Z,74.30
2017-08-17T20:58:30.003Z,74.50
2017-08-17T21:00:58.292Z,74.50
2017-08-17T21:03:25.788Z,74.50
2017-08-17T21:05:53.282Z,74.70
2017-08-17T21:08:21.580Z,74.80
2017-08-17T21:10:49.075Z,74.80
2017-08-17T21:13:16.620Z,74.70
2017-08-17T21:15:44.171Z,74.80
2017-08-17T21:18:11.669Z,74.90
2017-08-17T21:20:39.164Z,74.80
2017-08-17T21:23:06.685Z,74.90
2017-08-17T21:25:34.169Z,74.90
2017-08-17T21:28:01.708Z,75.00
2017-08-17T21:30:29.986Z,75.00
2017-08-17T21:32:58.251Z,75.10
2017-08-17T21:35:26.551Z,75.10
2017-08-17T21:37:54.044Z,75.00
2017-08-17T21:40:21.543Z,75.10
2017-08-17T21:42:49.850Z,75.50
2017-08-17T21:45:17.345Z,75.30
2017-08-17T21:47:44.863Z,75.30
2017-08-17T21:50:41.495Z,75.20
2017-08-17T21:53:09.011Z,75.30
2017-08-17T21:55:36.516Z,75.30
2017-08-17T21:58:04.049Z,75.30
2017-08-17T22:00:32.320Z,75.40
2017-08-17T22:03:00.627Z,75.50
2017-08-17T22:05:28.123Z,75.50
2017-08-17T22:07:55.606Z,75.60
2017-08-17T22:10:23.899Z,75.40
2017-08-17T22:12:51.388Z,75.30
2017-08-17T22:15:18.931Z,75.40
2017-08-17T22:17:46.453Z,75.50
2017-08-17T22:20:14.717Z,75.40
2017-08-17T22:22:42.248Z,75.40
2017-08-17T22:25:09.787Z,75.40
2017-08-17T22:27:37.359Z,75.50
2017-08-17T22:30:04.876Z,75.50
2017-08-17T22:32:32.397Z,75.40
2017-08-17T22:34:59.883Z,75.50
2017-08-17T22:37:28.188Z,75.60
2017-08-17T22:39:56.549Z,75.60
2017-08-17T22:42:24.033Z,75.60
2017-08-17T22:44:51.551Z,75.70
2017-08-17T22:47:19.040Z,75.60
2017-08-17T22:49:47.332Z,75.60
2017-08-17T22:52:15.591Z,75.60
2017-08-17T22:54:43.905Z,75.70
2017-08-17T22:57:11.396Z,75.70
2017-08-17T22:59:38.914Z,75.60
2017-08-17T23:02:06.424Z,75.60
2017-08-17T23:04:33.944Z,75.60
2017-08-17T23:07:01.452Z,75.60
2017-08-17T23:09:28.944Z,76.30
2017-08-17T23:11:56.435Z,75.70
2017-08-17T23:14:23.966Z,75.80
2017-08-17T23:16:51.451Z,75.70
2017-08-17T23:19:18.944Z,75.70
2017-08-17T23:21:47.248Z,75.80
2017-08-17T23:24:14.739Z,75.70
2017-08-17T23:26:42.232Z,75.70
2017-08-17T23:29:10.527Z,75.70
2017-08-17T23:31:38.015Z,75.70
2017-08-17T23:34:05.516Z,75.80
2017-08-17T23:36:33.816Z,75.80
2017-08-17T23:39:01.307Z,75.70
2017-08-17T23:41:28.791Z,75.80
2017-08-17T23:43:56.399Z,75.90
2017-08-17T23:46:23.951Z,75.80
2017-08-17T23:48:51.445Z,75.90
2017-08-17T23:51:18.982Z,75.90
2017-08-17T23:53:46.484Z,75.90
2017-08-17T23:56:14.746Z,75.90
2017-08-17T23:58:42.290Z,75.90
